createdAt,value
2023-05-01T00:01:16.514Z,96664.77
2023-05-01T00:03:44.812Z,96665.61
2023-05-01T00:06:12.883Z,96665.20
2023-05-01T00:08:40.911Z,96665.14
2023-05-01T00:11:11.318Z,96660.70
2023-05-01T00:13:39.320Z,96662.81
2023-05-01T00:16:11.121Z,96666.15
2023-05-01T00:18:39.507Z,96665.20
2023-05-01T00:21:07.415Z,96665.42
2023-05-01T00:23:36.805Z,96663.92
2023-05-01T00:26:05.314Z,96663.89
2023-05-01T00:28:33.231Z,96665.61
2023-05-01T00:31:01.294Z,96664.77
2023-05-01T00:33:29.417Z,96662.10
2023-05-01T00:35:57.354Z,96662.98
2023-05-01T00:38:25.362Z,96663.07
2023-05-01T00:40:53.351Z,96657.79
2023-05-01T00:43:22.000Z,96658.33
2023-05-01T00:45:50.092Z,96656.52
2023-05-01T00:48:18.468Z,96657.19
2023-05-01T00:50:49.136Z,96658.95
2023-05-01T00:53:17.122Z,96656.92
2023-05-01T00:55:45.771Z,96654.34
2023-05-01T00:58:16.951Z,96658.98
2023-05-01T01:00:44.883Z,96656.09
2023-05-01T01:03:12.861Z,96660.45
2023-05-01T01:05:52.289Z,96662.04
2023-05-01T01:08:26.958Z,96662.14
2023-05-01T01:11:03.994Z,96662.48
2023-05-01T01:13:45.950Z,96662.44
2023-05-01T01:16:23.144Z,96663.38
2023-05-01T01:19:40.319Z,96660.67
2023-05-01T01:22:15.442Z,96660.70
2023-05-01T01:24:59.327Z,96658.35
2023-05-01T01:27:36.475Z,96656.86
2023-05-01T01:30:49.781Z,96656.14
2023-05-01T01:33:41.168Z,96657.64
2023-05-01T01:36:19.091Z,96654.05
2023-05-01T01:39:18.519Z,96653.59
2023-05-01T01:41:51.209Z,96650.23
2023-05-01T01:44:25.675Z,96649.91
2023-05-01T01:46:54.602Z,96652.94
2023-05-01T01:49:26.536Z,96648.25
2023-05-01T01:51:57.111Z,96651.02
2023-05-01T01:54:50.647Z,96648.95
2023-05-01T01:57:20.865Z,96647.69
2023-05-01T01:59:51.356Z,96648.70
2023-05-01T02:02:21.344Z,96645.63
2023-05-01T02:04:51.574Z,96644.40
2023-05-01T02:07:21.805Z,96642.37
2023-05-01T02:09:53.625Z,96640.23
2023-05-01T02:12:24.811Z,96634.93
2023-05-01T02:14:54.163Z,96641.25
2023-05-01T02:17:22.707Z,96635.15
2023-05-01T02:19:53.460Z,96634.83
2023-05-01T02:22:22.933Z,96631.05
2023-05-01T02:24:53.729Z,96629.57
2023-05-01T02:27:32.437Z,96627.32
2023-05-01T02:30:00.482Z,96625.84
2023-05-01T02:32:28.896Z,96626.86
2023-05-01T02:34:57.750Z,96627.41
2023-05-01T02:37:25.894Z,96625.14
2023-05-01T02:39:55.217Z,96623.92
2023-05-01T02:42:26.948Z,96624.46
2023-05-01T02:45:03.932Z,96626.61
2023-05-01T02:47:34.201Z,96622.39
2023-05-01T02:50:03.598Z,96618.79
2023-05-01T02:52:32.586Z,96617.02
2023-05-01T02:55:13.264Z,96617.77
2023-05-01T02:57:42.839Z,96614.41
2023-05-01T03:00:14.185Z,96612.77
2023-05-01T03:02:42.396Z,96613.79
2023-05-01T03:05:10.589Z,96614.55
2023-05-01T03:07:38.486Z,96616.39
2023-05-01T03:10:07.917Z,96616.81
2023-05-01T03:12:35.821Z,96614.10
2023-05-01T03:15:04.224Z,96614.61
2023-05-01T03:17:32.175Z,96615.66
2023-05-01T03:20:00.171Z,96611.88
2023-05-01T03:22:33.141Z,96612.80
2023-05-01T03:25:01.561Z,96609.33
2023-05-01T03:27:31.476Z,96608.15
2023-05-01T03:29:59.463Z,96607.80
2023-05-01T03:32:29.495Z,96607.13
2023-05-01T03:34:57.912Z,96605.86
2023-05-01T03:37:26.354Z,96603.70
2023-05-01T03:39:54.652Z,96601.27
2023-05-01T03:42:41.624Z,96601.73
2023-05-01T03:45:15.187Z,96599.96
2023-05-01T03:47:43.191Z,96601.39
2023-05-01T03:50:11.266Z,96605.34
2023-05-01T03:52:40.547Z,96603.16
2023-05-01T03:55:09.413Z,96604.73
2023-05-01T03:57:42.492Z,96599.80
2023-05-01T04:00:12.470Z,96594.34
2023-05-01T04:02:47.493Z,96595.52
2023-05-01T04:05:19.435Z,96597.29
2023-05-01T04:07:51.924Z,96599.36
2023-05-01T04:10:20.497Z,96595.33
2023-05-01T04:12:54.891Z,96598.20
2023-05-01T04:15:22.867Z,96595.39
2023-05-01T04:17:51.271Z,96596.30
2023-05-01T04:20:19.620Z,96595.20
2023-05-01T04:22:48.561Z,96595.00
2023-05-01T04:25:16.579Z,96592.49
2023-05-01T04:27:45.596Z,96591.26
2023-05-01T04:30:14.003Z,96591.60
2023-05-01T04:32:42.234Z,96591.87
2023-05-01T04:35:11.641Z,96593.09
2023-05-01T04:37:41.423Z,96592.19
2023-05-01T04:40:11.793Z,96591.67
2023-05-01T04:42:40.923Z,96586.27
2023-05-01T04:45:11.205Z,96585.32
2023-05-01T04:47:39.280Z,96585.62
2023-05-01T04:50:08.358Z,96583.57
2023-05-01T04:52:36.478Z,96582.32
2023-05-01T04:55:05.363Z,96586.81
2023-05-01T04:57:36.148Z,96587.08
2023-05-01T05:00:08.013Z,96589.04
2023-05-01T05:02:40.811Z,96587.54
2023-05-01T05:05:09.715Z,96586.33
2023-05-01T05:07:41.241Z,96581.90
2023-05-01T05:10:27.662Z,96580.85
2023-05-01T05:13:10.179Z,96575.52
2023-05-01T05:15:38.745Z,96574.98
2023-05-01T05:18:10.648Z,96566.84
2023-05-01T05:20:39.997Z,96564.77
2023-05-01T05:23:08.609Z,96570.14
2023-05-01T05:25:36.794Z,96573.52
2023-05-01T05:28:04.964Z,96574.85
2023-05-01T05:30:33.006Z,96574.34
2023-05-01T05:33:01.267Z,96575.84
2023-05-01T05:35:30.041Z,96576.79
2023-05-01T05:37:58.660Z,96578.00
2023-05-01T05:40:27.275Z,96576.50
2023-05-01T05:42:57.141Z,96573.13
2023-05-01T05:45:26.632Z,96568.23
2023-05-01T05:47:54.880Z,96570.70
2023-05-01T05:50:22.986Z,96570.55
2023-05-01T05:52:51.403Z,96567.12
2023-05-01T05:55:19.722Z,96570.93
2023-05-01T05:58:00.194Z,96570.98
2023-05-01T06:00:29.168Z,96567.95
2023-05-01T06:02:58.283Z,96563.31
2023-05-01T06:05:27.774Z,96567.36
2023-05-01T06:07:55.854Z,96565.52
2023-05-01T06:10:23.887Z,96563.29
2023-05-01T06:12:55.720Z,96565.38
2023-05-01T06:15:29.711Z,96565.01
2023-05-01T06:17:59.575Z,96570.64
2023-05-01T06:20:27.622Z,96569.95
2023-05-01T06:22:56.642Z,96568.41
2023-05-01T06:25:31.134Z,96568.61
2023-05-01T06:27:59.172Z,96570.01
2023-05-01T06:30:27.146Z,96571.05
2023-05-01T06:32:55.092Z,96570.44
2023-05-01T06:35:23.673Z,96567.98
2023-05-01T06:37:51.806Z,96561.62
2023-05-01T06:40:19.761Z,96568.41
2023-05-01T06:42:47.793Z,96569.23
2023-05-01T06:45:21.065Z,96568.45
2023-05-01T06:47:51.903Z,96567.45
2023-05-01T06:50:20.102Z,96563.03
2023-05-01T06:52:48.236Z,96562.32
2023-05-01T06:55:16.761Z,96562.45
2023-05-01T06:57:44.791Z,96566.70
2023-05-01T07:00:14.063Z,96564.56
2023-05-01T07:02:42.290Z,96567.34
2023-05-01T07:05:10.672Z,96567.09
2023-05-01T07:07:42.243Z,96563.56
2023-05-01T07:10:15.707Z,96561.65
2023-05-01T07:12:43.877Z,96564.83
2023-05-01T07:15:11.806Z,96568.13
2023-05-01T07:17:39.795Z,96570.80
2023-05-01T07:20:08.523Z,96573.59
2023-05-01T07:22:36.407Z,96571.70
2023-05-01T07:25:04.811Z,96567.91
2023-05-01T07:27:32.783Z,96571.35
2023-05-01T07:30:01.805Z,96571.86
2023-05-01T07:32:31.400Z,96574.48
2023-05-01T07:34:59.453Z,96572.88
2023-05-01T07:37:27.407Z,96570.41
2023-05-01T07:39:56.936Z,96569.78
2023-05-01T07:42:27.324Z,96569.06
2023-05-01T07:44:55.324Z,96566.98
2023-05-01T07:47:23.297Z,96570.36
2023-05-01T07:49:51.296Z,96572.05
2023-05-01T07:52:19.327Z,96572.74
2023-05-01T07:54:51.320Z,96577.56
2023-05-01T07:57:19.464Z,96573.81
2023-05-01T07:59:47.929Z,96573.29
2023-05-01T08:02:19.684Z,96573.40
2023-05-01T08:04:48.449Z,96574.34
2023-05-01T08:07:16.873Z,96568.55
2023-05-01T08:09:46.437Z,96564.85
2023-05-01T08:12:14.463Z,96559.80
2023-05-01T08:14:42.501Z,96564.06
2023-05-01T08:17:10.498Z,96564.95
2023-05-01T08:19:38.420Z,96570.17
2023-05-01T08:22:06.431Z,96576.38
2023-05-01T08:24:34.456Z,96573.45
2023-05-01T08:27:03.018Z,96570.68
2023-05-01T08:29:31.092Z,96569.35
2023-05-01T08:31:59.193Z,96570.00
2023-05-01T08:34:27.402Z,96567.04
2023-05-01T08:36:55.340Z,96564.95
2023-05-01T08:39:23.363Z,96570.68
2023-05-01T08:41:52.804Z,96566.92
2023-05-01T08:44:26.611Z,96568.31
2023-05-01T08:47:11.209Z,96571.30
2023-05-01T08:49:42.064Z,96564.09
2023-05-01T08:52:15.242Z,96565.83
2023-05-01T08:54:44.964Z,96569.92
2023-05-01T08:57:13.240Z,96569.70
2023-05-01T08:59:41.896Z,96566.60
2023-05-01T09:02:12.414Z,96569.63
2023-05-01T09:04:41.519Z,96565.35
2023-05-01T09:07:10.430Z,96565.14
2023-05-01T09:09:38.485Z,96561.95
2023-05-01T09:12:23.390Z,96556.20
2023-05-01T09:14:56.332Z,96551.69
2023-05-01T09:17:24.971Z,96548.85
2023-05-01T09:19:53.568Z,96549.35
2023-05-01T09:22:21.698Z,96551.55
2023-05-01T09:24:50.291Z,96550.56
2023-05-01T09:27:18.258Z,96547.54
2023-05-01T09:29:48.089Z,96545.23
2023-05-01T09:32:29.933Z,96542.84
2023-05-01T09:35:12.479Z,96539.58
2023-05-01T09:37:41.860Z,96534.96
2023-05-01T09:40:10.517Z,96536.43
2023-05-01T09:42:40.491Z,96531.34
2023-05-01T09:45:19.378Z,96533.07
2023-05-01T09:47:47.602Z,96527.91
2023-05-01T09:50:31.059Z,96525.98
2023-05-01T09:53:05.243Z,96523.38
2023-05-01T09:55:34.148Z,96522.48
2023-05-01T09:58:02.791Z,96516.04
2023-05-01T10:00:30.890Z,96518.14
2023-05-01T10:03:12.770Z,96518.20
2023-05-01T10:05:46.966Z,96519.44
2023-05-01T10:08:16.709Z,96519.09
2023-05-01T10:10:44.842Z,96512.04
2023-05-01T10:13:17.795Z,96510.56
2023-05-01T10:15:48.422Z,96509.98
2023-05-01T10:18:17.355Z,96508.67
2023-05-01T10:20:45.385Z,96501.81
2023-05-01T10:23:13.390Z,96500.95
2023-05-01T10:25:42.418Z,96493.55
2023-05-01T10:28:12.886Z,96497.32
2023-05-01T10:30:41.732Z,96494.88
2023-05-01T10:33:13.717Z,96495.08
2023-05-01T10:35:49.190Z,96492.09
2023-05-01T10:38:26.130Z,96491.33
2023-05-01T10:40:54.180Z,96490.90
2023-05-01T10:43:30.758Z,96488.77
2023-05-01T10:46:07.723Z,96486.13
2023-05-01T10:48:38.730Z,96489.58
2023-05-01T10:51:20.516Z,96486.00
2023-05-01T10:53:50.266Z,96487.35
2023-05-01T10:56:25.368Z,96487.52
2023-05-01T10:58:53.230Z,96483.28
2023-05-01T11:01:40.942Z,96478.67
2023-05-01T11:04:24.721Z,96477.02
2023-05-01T11:07:02.222Z,96474.91
2023-05-01T11:09:55.471Z,96479.23
2023-05-01T11:12:42.521Z,96477.77
2023-05-01T11:15:10.728Z,96469.37
2023-05-01T11:17:42.043Z,96466.08
2023-05-01T11:20:12.175Z,96464.02
2023-05-01T11:22:46.483Z,96462.02
2023-05-01T11:25:22.883Z,96458.13
2023-05-01T11:28:04.213Z,96453.49
2023-05-01T11:30:39.491Z,96450.70
2023-05-01T11:33:10.412Z,96445.90
2023-05-01T11:35:39.165Z,96446.64
2023-05-01T11:38:18.876Z,96444.45
2023-05-01T11:40:55.509Z,96446.98
2023-05-01T11:43:23.584Z,96444.21
2023-05-01T11:46:01.948Z,96450.42
2023-05-01T11:48:30.959Z,96441.46
2023-05-01T11:50:59.088Z,96441.92
2023-05-01T11:53:27.271Z,96438.69
2023-05-01T11:55:55.413Z,96433.75
2023-05-01T11:58:34.109Z,96432.68
2023-05-01T12:01:03.364Z,96433.21
2023-05-01T12:03:42.826Z,96434.13
2023-05-01T12:06:13.455Z,96431.73
2023-05-01T12:08:50.396Z,96426.26
2023-05-01T12:11:20.684Z,96422.73
2023-05-01T12:13:50.378Z,96418.48
2023-05-01T12:16:19.054Z,96414.61
2023-05-01T12:18:48.454Z,96413.43
2023-05-01T12:21:18.000Z,96406.57
2023-05-01T12:23:46.744Z,96411.59
2023-05-01T12:26:25.830Z,96407.74
2023-05-01T12:28:54.076Z,96397.70
2023-05-01T12:31:22.911Z,96393.75
2023-05-01T12:34:01.821Z,96388.14
2023-05-01T12:36:33.687Z,96383.61
2023-05-01T12:39:09.181Z,96382.10
2023-05-01T12:41:56.513Z,96379.50
2023-05-01T12:44:30.810Z,96377.76
2023-05-01T12:47:07.509Z,96373.29
2023-05-01T12:49:40.630Z,96373.29
2023-05-01T12:52:09.268Z,96367.48
2023-05-01T12:54:39.593Z,96363.39
2023-05-01T12:57:08.461Z,96361.52
2023-05-01T12:59:38.314Z,96358.16
2023-05-01T13:02:09.010Z,96358.23
2023-05-01T13:04:37.646Z,96356.77
2023-05-01T13:07:12.680Z,96355.81
2023-05-01T13:10:00.400Z,96356.64
2023-05-01T13:12:30.905Z,96354.08
2023-05-01T13:14:59.570Z,96348.75
2023-05-01T13:17:34.982Z,96346.30
2023-05-01T13:20:06.914Z,96343.89
2023-05-01T13:22:37.672Z,96341.30
2023-05-01T13:25:14.563Z,96338.27
2023-05-01T13:27:48.611Z,96335.75
2023-05-01T13:30:22.084Z,96328.20
2023-05-01T13:32:50.155Z,96328.27
2023-05-01T13:35:26.169Z,96323.83
2023-05-01T13:37:54.362Z,96321.99
2023-05-01T13:40:26.175Z,96318.20
2023-05-01T13:42:54.324Z,96316.81
2023-05-01T13:45:22.448Z,96313.00
2023-05-01T13:47:52.205Z,96316.25
2023-05-01T13:50:20.293Z,96316.34
2023-05-01T13:52:48.598Z,96318.33
2023-05-01T13:55:21.517Z,96314.42
2023-05-01T13:57:50.138Z,96310.20
2023-05-01T14:00:19.207Z,96308.61
2023-05-01T14:02:49.258Z,96308.99
2023-05-01T14:05:30.504Z,96303.73
2023-05-01T14:07:58.981Z,96299.23
2023-05-01T14:10:28.799Z,96294.58
2023-05-01T14:12:58.854Z,96290.66
2023-05-01T14:15:28.894Z,96290.58
2023-05-01T14:17:58.972Z,96288.64
2023-05-01T14:20:27.077Z,96281.61
2023-05-01T14:22:56.099Z,96278.12
2023-05-01T14:25:30.003Z,96272.54
2023-05-01T14:28:01.198Z,96276.97
2023-05-01T14:30:38.579Z,96272.04
2023-05-01T14:33:11.810Z,96266.15
2023-05-01T14:35:53.668Z,96261.05
2023-05-01T14:38:25.363Z,96256.63
2023-05-01T14:40:53.440Z,96257.92
2023-05-01T14:43:24.049Z,96259.14
2023-05-01T14:45:52.819Z,96256.54
2023-05-01T14:48:23.667Z,96255.05
2023-05-01T14:50:52.852Z,96249.58
2023-05-01T14:53:21.308Z,96245.26
2023-05-01T14:55:52.624Z,96246.27
2023-05-01T14:58:20.546Z,96248.52
2023-05-01T15:00:48.534Z,96245.73
2023-05-01T15:03:17.001Z,96245.16
2023-05-01T15:05:46.415Z,96243.69
2023-05-01T15:08:14.741Z,96241.79
2023-05-01T15:10:43.702Z,96244.73
2023-05-01T15:13:19.080Z,96246.35
2023-05-01T15:15:47.050Z,96243.06
2023-05-01T15:18:16.217Z,96235.84
2023-05-01T15:20:44.440Z,96230.94
2023-05-01T15:23:12.744Z,96230.83
2023-05-01T15:25:44.240Z,96232.11
2023-05-01T15:28:14.910Z,96231.00
2023-05-01T15:30:47.122Z,96232.91
2023-05-01T15:33:18.690Z,96225.20
2023-05-01T15:35:48.781Z,96221.77
2023-05-01T15:38:17.253Z,96222.75
2023-05-01T15:40:46.126Z,96219.53
2023-05-01T15:43:14.065Z,96218.34
2023-05-01T15:45:43.989Z,96218.65
2023-05-01T15:48:16.910Z,96218.61
2023-05-01T15:50:47.407Z,96222.09
2023-05-01T15:53:17.303Z,96220.01
2023-05-01T15:55:45.378Z,96220.11
2023-05-01T15:58:13.488Z,96212.58
2023-05-01T16:00:41.470Z,96214.12
2023-05-01T16:03:10.113Z,96214.08
2023-05-01T16:05:39.125Z,96207.20
2023-05-01T16:08:07.686Z,96208.05
2023-05-01T16:10:39.056Z,96210.04
2023-05-01T16:13:07.528Z,96209.57
2023-05-01T16:18:05.175Z,96206.16
2023-05-01T16:20:38.987Z,96202.80
2023-05-01T16:23:07.051Z,96199.34
2023-05-01T16:25:37.887Z,96196.63
2023-05-01T16:28:06.587Z,96194.29
2023-05-01T16:30:34.562Z,96194.85
2023-05-01T16:33:05.240Z,96194.91
2023-05-01T16:35:33.202Z,96192.89
2023-05-01T16:38:01.764Z,96193.08
2023-05-01T16:40:29.726Z,96189.40
2023-05-01T16:43:02.220Z,96188.00
2023-05-01T16:45:32.569Z,96189.36
2023-05-01T16:48:04.246Z,96186.16
2023-05-01T16:50:42.159Z,96186.55
2023-05-01T16:53:10.396Z,96183.42
2023-05-01T16:55:38.273Z,96185.66
2023-05-01T16:58:07.110Z,96188.17
2023-05-01T17:00:35.652Z,96184.06
2023-05-01T17:03:04.378Z,96186.64
2023-05-01T17:05:32.851Z,96181.09
2023-05-01T17:08:00.909Z,96182.91
2023-05-01T17:10:34.325Z,96178.27
2023-05-01T17:13:02.489Z,96179.38
2023-05-01T17:15:30.467Z,96179.27
2023-05-01T17:17:58.410Z,96179.64
2023-05-01T17:20:26.384Z,96184.59
2023-05-01T17:22:54.410Z,96178.73
2023-05-01T17:25:22.576Z,96178.66
2023-05-01T17:27:50.528Z,96174.19
2023-05-01T17:30:18.722Z,96173.73
2023-05-01T17:32:46.814Z,96174.14
2023-05-01T17:35:15.701Z,96172.36
2023-05-01T17:37:45.047Z,96168.56
2023-05-01T17:40:13.221Z,96171.09
2023-05-01T17:42:41.907Z,96167.02
2023-05-01T17:45:11.130Z,96167.67
2023-05-01T17:47:41.778Z,96166.08
2023-05-01T17:50:11.757Z,96169.62
2023-05-01T17:52:41.316Z,96166.83
2023-05-01T17:55:10.722Z,96169.08
2023-05-01T17:57:40.270Z,96169.45
2023-05-01T18:00:09.436Z,96174.73
2023-05-01T18:02:48.385Z,96176.99
2023-05-01T18:05:16.679Z,96173.05
2023-05-01T18:07:45.467Z,96169.77
2023-05-01T18:10:13.694Z,96172.26
2023-05-01T18:12:41.749Z,96174.90
2023-05-01T18:15:10.134Z,96174.64
2023-05-01T18:17:38.222Z,96176.06
2023-05-01T18:20:07.486Z,96171.66
2023-05-01T18:22:35.474Z,96175.56
2023-05-01T18:25:04.005Z,96179.29
2023-05-01T18:27:32.013Z,96179.05
2023-05-01T18:30:00.325Z,96179.19
2023-05-01T18:32:43.304Z,96179.27
2023-05-01T18:35:14.410Z,96178.91
2023-05-01T18:37:43.091Z,96179.19
2023-05-01T18:40:11.699Z,96178.30
2023-05-01T18:42:41.793Z,96176.36
2023-05-01T18:45:14.467Z,96176.58
2023-05-01T18:47:42.725Z,96173.54
2023-05-01T18:50:11.825Z,96175.20
2023-05-01T18:52:41.871Z,96174.55
2023-05-01T18:55:11.513Z,96171.98
2023-05-01T18:57:41.909Z,96171.35
2023-05-01T19:00:13.145Z,96177.74
2023-05-01T19:02:41.666Z,96175.64
2023-05-01T19:05:10.166Z,96176.86
2023-05-01T19:07:39.047Z,96176.70
2023-05-01T19:10:07.680Z,96173.30
2023-05-01T19:12:37.787Z,96170.27
2023-05-01T19:15:06.168Z,96175.44
2023-05-01T19:17:34.248Z,96179.27
2023-05-01T19:20:04.123Z,96178.12
2023-05-01T19:22:32.197Z,96176.06
2023-05-01T19:25:00.440Z,96178.23
2023-05-01T19:27:28.432Z,96176.72
2023-05-01T19:30:00.569Z,96177.96
2023-05-01T19:32:29.271Z,96178.36
2023-05-01T19:34:57.319Z,96174.88
2023-05-01T19:37:27.633Z,96175.11
2023-05-01T19:39:55.582Z,96174.86
2023-05-01T19:42:23.580Z,96171.64
2023-05-01T19:44:51.608Z,96170.86
2023-05-01T19:47:19.610Z,96172.76
2023-05-01T19:49:47.643Z,96172.28
2023-05-01T19:52:15.692Z,96169.48
2023-05-01T19:54:45.078Z,96175.27
2023-05-01T19:57:13.047Z,96174.15
2023-05-01T19:59:42.707Z,96168.73
2023-05-01T20:02:10.751Z,96171.35
2023-05-01T20:04:38.888Z,96166.98
2023-05-01T20:07:06.935Z,96167.13
2023-05-01T20:09:34.960Z,96165.09
2023-05-01T20:12:03.346Z,96163.59
2023-05-01T20:14:33.591Z,96159.33
2023-05-01T20:17:02.247Z,96157.62
2023-05-01T20:19:31.367Z,96152.45
2023-05-01T20:21:59.333Z,96158.29
2023-05-01T20:24:27.302Z,96156.50
2023-05-01T20:26:55.911Z,96154.97
2023-05-01T20:29:24.519Z,96153.70
2023-05-01T20:31:52.738Z,96150.76
2023-05-01T20:34:20.954Z,96150.58
2023-05-01T20:36:48.960Z,96150.11
2023-05-01T20:39:16.977Z,96146.23
2023-05-01T20:41:44.943Z,96147.96
2023-05-01T20:44:14.454Z,96149.67
2023-05-01T20:46:44.284Z,96149.58
2023-05-01T20:49:15.691Z,96150.94
2023-05-01T20:51:44.904Z,96150.55
2023-05-01T20:54:12.843Z,96148.64
2023-05-01T20:56:40.997Z,96150.06
2023-05-01T20:59:08.918Z,96150.09
2023-05-01T21:01:36.986Z,96151.43
2023-05-01T21:04:06.449Z,96157.27
2023-05-01T21:06:34.899Z,96153.85
2023-05-01T21:09:04.564Z,96156.52
2023-05-01T21:11:32.548Z,96156.61
2023-05-01T21:14:01.418Z,96161.75
2023-05-01T21:16:29.562Z,96161.20
2023-05-01T21:18:57.558Z,96162.40
2023-05-01T21:21:26.772Z,96163.14
2023-05-01T21:23:55.212Z,96158.64
2023-05-01T21:26:23.099Z,96161.39
2023-05-01T21:28:51.174Z,96162.63
2023-05-01T21:31:19.605Z,96161.48
2023-05-01T21:33:48.008Z,96163.92
2023-05-01T21:36:18.155Z,96166.80
2023-05-01T21:38:46.404Z,96166.91
2023-05-01T21:41:15.624Z,96167.70
2023-05-01T21:43:44.565Z,96173.63
2023-05-01T21:46:17.230Z,96173.16
2023-05-01T21:48:51.612Z,96173.73
2023-05-01T21:51:27.119Z,96174.64
2023-05-01T21:53:55.718Z,96179.83
2023-05-01T21:56:24.063Z,96182.10
2023-05-01T21:58:52.088Z,96182.90
2023-05-01T22:01:22.486Z,96181.06
2023-05-01T22:03:51.738Z,96181.70
2023-05-01T22:06:20.366Z,96183.13
2023-05-01T22:08:48.366Z,96189.08
2023-05-01T22:11:16.346Z,96187.87
2023-05-01T22:13:44.337Z,96191.92
2023-05-01T22:16:13.667Z,96197.00
2023-05-01T22:18:41.628Z,96196.10
2023-05-01T22:21:09.652Z,96197.15
2023-05-01T22:23:37.700Z,96197.77
2023-05-01T22:26:05.745Z,96198.72
2023-05-01T22:28:33.692Z,96197.08
2023-05-01T22:31:01.617Z,96199.22
2023-05-01T22:33:29.623Z,96196.98
2023-05-01T22:35:57.809Z,96194.52
2023-05-01T22:38:25.933Z,96192.92
2023-05-01T22:40:54.961Z,96195.09
2023-05-01T22:43:24.033Z,96197.61
2023-05-01T22:45:51.999Z,96196.09
2023-05-01T22:48:20.009Z,96196.60
2023-05-01T22:50:48.269Z,96193.05
2023-05-01T22:53:16.308Z,96191.73
2023-05-01T22:55:44.254Z,96186.85
2023-05-01T22:58:12.272Z,96187.67
2023-05-01T23:00:40.584Z,96186.94
2023-05-01T23:03:09.502Z,96191.06
2023-05-01T23:05:37.753Z,96194.45
2023-05-01T23:08:06.130Z,96191.17
2023-05-01T23:10:34.121Z,96189.73
2023-05-01T23:13:02.054Z,96196.41
2023-05-01T23:15:29.961Z,96194.61
2023-05-01T23:17:58.010Z,96193.70
2023-05-01T23:20:26.225Z,96193.14
2023-05-01T23:22:54.356Z,96193.48
2023-05-01T23:25:26.189Z,96193.36
2023-05-01T23:27:56.688Z,96194.61
2023-05-01T23:30:24.687Z,96191.79
2023-05-01T23:32:57.706Z,96195.58
2023-05-01T23:35:25.744Z,96196.20
2023-05-01T23:37:53.990Z,96194.03
2023-05-01T23:40:22.524Z,96193.59
2023-05-01T23:42:50.690Z,96196.01
2023-05-01T23:45:18.785Z,96191.41
2023-05-01T23:47:46.785Z,96191.08
2023-05-01T23:50:14.966Z,96192.45
2023-05-01T23:52:43.023Z,96188.59
2023-05-01T23:55:11.284Z,96189.48
2023-05-01T23:57:39.192Z,96187.73
